sensor_id;sensor_type;location;lat;lon;timestamp;P1;durP1;ratioP1;P2;durP2;ratioP2
9467;SDS011;4772;52.382;9.752;2022-11-20T00:00:00;17.90;;;10.37;;
9467;SDS011;4772;52.382;9.752;2022-11-20T00:02:26;14.00;;;10.20;;
9467;SDS011;4772;52.382;9.752;2022-11-20T00:04:52;15.13;;;10.10;;
9467;SDS011;4772;52.382;9.752;2022-11-20T00:07:18;16.43;;;10.70;;
9467;SDS011;4772;52.382;9.752;2022-11-20T00:09:44;15.70;;;10.73;;
9467;SDS011;4772;52.382;9.752;2022-11-20T00:12:10;13.63;;;10.03;;
9467;SDS011;4772;52.382;9.752;2022-11-20T00:14:36;13.93;;;10.40;;
9467;SDS011;4772;52.382;9.752;2022-11-20T00:17:02;12.73;;;9.93;;
9467;SDS011;4772;52.382;9.752;2022-11-20T00:19:28;14.93;;;10.23;;
9467;SDS011;4772;52.382;9.752;2022-11-20T00:21:54;13.97;;;10.10;;
9467;SDS011;4772;52.382;9.752;2022-11-20T00:24:20;15.30;;;10.57;;
9467;SDS011;4772;52.382;9.752;2022-11-20T00:26:46;16.60;;;10.67;;
9467;SDS011;4772;52.382;9.752;2022-11-20T00:29:12;18.47;;;10.60;;
9467;SDS011;4772;52.382;9.752;2022-11-20T00:31:38;13.77;;;10.30;;
9467;SDS011;4772;52.382;9.752;2022-11-20T00:34:04;17.97;;;11.20;;
9467;SDS011;4772;52.382;9.752;2022-11-20T00:36:32;16.20;;;10.80;;
9467;SDS011;4772;52.382;9.752;2022-11-20T00:38:58;15.40;;;10.43;;
9467;SDS011;4772;52.382;9.752;2022-11-20T00:41:25;15.43;;;11.03;;
9467;SDS011;4772;52.382;9.752;2022-11-20T00:43:52;16.13;;;11.10;;
9467;SDS011;4772;52.382;9.752;2022-11-20T00:46:19;15.47;;;11.30;;
9467;SDS011;4772;52.382;9.752;2022-11-20T00:48:45;15.33;;;11.87;;
9467;SDS011;4772;52.382;9.752;2022-11-20T00:51:19;16.03;;;11.53;;
9467;SDS011;4772;52.382;9.752;2022-11-20T00:53:45;16.00;;;11.13;;
9467;SDS011;4772;52.382;9.752;2022-11-20T00:56:12;15.17;;;11.60;;
9467;SDS011;4772;52.382;9.752;2022-11-20T00:58:38;14.50;;;10.77;;
9467;SDS011;4772;52.382;9.752;2022-11-20T01:01:06;17.47;;;10.90;;
9467;SDS011;4772;52.382;9.752;2022-11-20T01:03:33;15.73;;;10.90;;
9467;SDS011;4772;52.382;9.752;2022-11-20T01:06:02;14.57;;;10.57;;
9467;SDS011;4772;52.382;9.752;2022-11-20T01:08:29;16.00;;;10.67;;
9467;SDS011;4772;52.382;9.752;2022-11-20T01:11:03;15.63;;;10.97;;
9467;SDS011;4772;52.382;9.752;2022-11-20T01:13:29;13.93;;;10.73;;
9467;SDS011;4772;52.382;9.752;2022-11-20T01:16:03;15.97;;;10.80;;
9467;SDS011;4772;52.382;9.752;2022-11-20T01:18:29;15.33;;;10.90;;
9467;SDS011;4772;52.382;9.752;2022-11-20T01:20:55;15.23;;;11.10;;
9467;SDS011;4772;52.382;9.752;2022-11-20T01:23:21;16.17;;;10.90;;
9467;SDS011;4772;52.382;9.752;2022-11-20T01:25:47;14.10;;;10.07;;
9467;SDS011;4772;52.382;9.752;2022-11-20T01:28:13;16.30;;;10.50;;
9467;SDS011;4772;52.382;9.752;2022-11-20T01:30:39;16.30;;;10.13;;
9467;SDS011;4772;52.382;9.752;2022-11-20T01:33:05;12.80;;;10.10;;
9467;SDS011;4772;52.382;9.752;2022-11-20T01:35:31;14.67;;;10.70;;
9467;SDS011;4772;52.382;9.752;2022-11-20T01:37:57;12.57;;;10.17;;
9467;SDS011;4772;52.382;9.752;2022-11-20T01:40:23;15.60;;;11.00;;
9467;SDS011;4772;52.382;9.752;2022-11-20T01:42:51;18.07;;;10.20;;
9467;SDS011;4772;52.382;9.752;2022-11-20T01:45:43;14.13;;;10.30;;
9467;SDS011;4772;52.382;9.752;2022-11-20T01:48:14;13.33;;;10.23;;
9467;SDS011;4772;52.382;9.752;2022-11-20T01:50:40;13.63;;;9.97;;
9467;SDS011;4772;52.382;9.752;2022-11-20T01:53:08;14.20;;;10.10;;
9467;SDS011;4772;52.382;9.752;2022-11-20T01:55:37;16.60;;;9.97;;
9467;SDS011;4772;52.382;9.752;2022-11-20T01:58:05;12.87;;;9.50;;
9467;SDS011;4772;52.382;9.752;2022-11-20T02:00:32;12.97;;;9.47;;
9467;SDS011;4772;52.382;9.752;2022-11-20T02:02:58;13.90;;;10.37;;
9467;SDS011;4772;52.382;9.752;2022-11-20T02:08:10;12.93;;;9.77;;
9467;SDS011;4772;52.382;9.752;2022-11-20T02:10:37;11.97;;;9.80;;
9467;SDS011;4772;52.382;9.752;2022-11-20T02:13:03;15.37;;;9.03;;
9467;SDS011;4772;52.382;9.752;2022-11-20T02:15:49;12.27;;;9.27;;
9467;SDS011;4772;52.382;9.752;2022-11-20T02:18:16;13.33;;;9.37;;
9467;SDS011;4772;52.382;9.752;2022-11-20T02:20:43;12.83;;;9.70;;
9467;SDS011;4772;52.382;9.752;2022-11-20T02:25:35;16.03;;;9.73;;
9467;SDS011;4772;52.382;9.752;2022-11-20T02:28:02;13.50;;;9.60;;
9467;SDS011;4772;52.382;9.752;2022-11-20T02:30:28;14.37;;;9.20;;
9467;SDS011;4772;52.382;9.752;2022-11-20T02:32:54;13.07;;;9.30;;
9467;SDS011;4772;52.382;9.752;2022-11-20T02:37:47;12.77;;;8.87;;
9467;SDS011;4772;52.382;9.752;2022-11-20T02:40:14;13.87;;;9.07;;
9467;SDS011;4772;52.382;9.752;2022-11-20T02:42:40;11.23;;;8.47;;
9467;SDS011;4772;52.382;9.752;2022-11-20T02:45:06;14.97;;;9.40;;
9467;SDS011;4772;52.382;9.752;2022-11-20T02:47:32;12.33;;;9.10;;
9467;SDS011;4772;52.382;9.752;2022-11-20T02:49:59;13.17;;;9.77;;
9467;SDS011;4772;52.382;9.752;2022-11-20T02:52:25;12.67;;;9.23;;
9467;SDS011;4772;52.382;9.752;2022-11-20T02:54:51;12.70;;;10.03;;
9467;SDS011;4772;52.382;9.752;2022-11-20T02:57:17;14.17;;;9.97;;
9467;SDS011;4772;52.382;9.752;2022-11-20T02:59:43;14.80;;;9.80;;
9467;SDS011;4772;52.382;9.752;2022-11-20T03:02:09;16.17;;;10.33;;
9467;SDS011;4772;52.382;9.752;2022-11-20T03:04:35;15.67;;;10.37;;
9467;SDS011;4772;52.382;9.752;2022-11-20T03:07:02;17.47;;;11.50;;
9467;SDS011;4772;52.382;9.752;2022-11-20T03:09:28;14.67;;;10.93;;
9467;SDS011;4772;52.382;9.752;2022-11-20T03:11:54;15.70;;;11.87;;
9467;SDS011;4772;52.382;9.752;2022-11-20T03:14:20;17.53;;;11.43;;
9467;SDS011;4772;52.382;9.752;2022-11-20T03:16:46;15.20;;;10.73;;
9467;SDS011;4772;52.382;9.752;2022-11-20T03:19:12;15.40;;;11.23;;
9467;SDS011;4772;52.382;9.752;2022-11-20T03:21:39;18.73;;;11.10;;
9467;SDS011;4772;52.382;9.752;2022-11-20T03:24:05;15.33;;;11.27;;
9467;SDS011;4772;52.382;9.752;2022-11-20T03:26:31;18.50;;;11.80;;
9467;SDS011;4772;52.382;9.752;2022-11-20T03:28:58;15.40;;;11.20;;
9467;SDS011;4772;52.382;9.752;2022-11-20T03:31:25;16.27;;;12.03;;
9467;SDS011;4772;52.382;9.752;2022-11-20T03:33:51;16.57;;;11.33;;
9467;SDS011;4772;52.382;9.752;2022-11-20T03:36:18;15.00;;;10.87;;
9467;SDS011;4772;52.382;9.752;2022-11-20T03:38:44;16.40;;;11.57;;
9467;SDS011;4772;52.382;9.752;2022-11-20T03:41:11;15.63;;;11.17;;
9467;SDS011;4772;52.382;9.752;2022-11-20T03:43:37;17.50;;;11.10;;
9467;SDS011;4772;52.382;9.752;2022-11-20T03:46:04;16.37;;;11.07;;
9467;SDS011;4772;52.382;9.752;2022-11-20T03:48:30;15.30;;;10.70;;
9467;SDS011;4772;52.382;9.752;2022-11-20T03:51:12;16.47;;;10.57;;
9467;SDS011;4772;52.382;9.752;2022-11-20T03:53:39;16.67;;;11.07;;
9467;SDS011;4772;52.382;9.752;2022-11-20T03:56:06;15.83;;;10.80;;
9467;SDS011;4772;52.382;9.752;2022-11-20T03:58:32;14.53;;;10.70;;
9467;SDS011;4772;52.382;9.752;2022-11-20T04:01:04;16.70;;;11.37;;
9467;SDS011;4772;52.382;9.752;2022-11-20T04:03:30;15.27;;;10.50;;
9467;SDS011;4772;52.382;9.752;2022-11-20T04:06:01;15.10;;;10.87;;
9467;SDS011;4772;52.382;9.752;2022-11-20T04:08:28;14.20;;;10.43;;
9467;SDS011;4772;52.382;9.752;2022-11-20T04:10:54;15.60;;;10.73;;
9467;SDS011;4772;52.382;9.752;2022-11-20T04:13:20;15.17;;;10.37;;
9467;SDS011;4772;52.382;9.752;2022-11-20T04:15:46;14.20;;;10.03;;
9467;SDS011;4772;52.382;9.752;2022-11-20T04:18:12;14.63;;;10.40;;
9467;SDS011;4772;52.382;9.752;2022-11-20T04:20:38;11.83;;;9.43;;
9467;SDS011;4772;52.382;9.752;2022-11-20T04:23:03;14.97;;;10.07;;
9467;SDS011;4772;52.382;9.752;2022-11-20T04:25:29;15.50;;;10.43;;
9467;SDS011;4772;52.382;9.752;2022-11-20T04:27:55;14.93;;;9.97;;
9467;SDS011;4772;52.382;9.752;2022-11-20T04:30:21;15.13;;;9.63;;
9467;SDS011;4772;52.382;9.752;2022-11-20T04:32:47;14.10;;;9.87;;
9467;SDS011;4772;52.382;9.752;2022-11-20T04:35:13;12.50;;;9.53;;
9467;SDS011;4772;52.382;9.752;2022-11-20T04:37:39;11.63;;;9.27;;
9467;SDS011;4772;52.382;9.752;2022-11-20T04:40:05;13.70;;;9.00;;
9467;SDS011;4772;52.382;9.752;2022-11-20T04:42:31;11.80;;;8.97;;
9467;SDS011;4772;52.382;9.752;2022-11-20T04:44:57;13.07;;;9.40;;
9467;SDS011;4772;52.382;9.752;2022-11-20T04:47:23;15.13;;;9.47;;
9467;SDS011;4772;52.382;9.752;2022-11-20T04:49:50;12.63;;;9.53;;
9467;SDS011;4772;52.382;9.752;2022-11-20T04:52:16;12.27;;;9.63;;
9467;SDS011;4772;52.382;9.752;2022-11-20T04:54:42;13.40;;;9.27;;
9467;SDS011;4772;52.382;9.752;2022-11-20T04:57:08;11.93;;;8.97;;
9467;SDS011;4772;52.382;9.752;2022-11-20T04:59:34;13.10;;;9.67;;
9467;SDS011;4772;52.382;9.752;2022-11-20T05:01:59;13.37;;;8.87;;
9467;SDS011;4772;52.382;9.752;2022-11-20T05:04:25;11.43;;;9.07;;
9467;SDS011;4772;52.382;9.752;2022-11-20T05:06:51;12.60;;;9.23;;
9467;SDS011;4772;52.382;9.752;2022-11-20T05:09:17;12.17;;;8.80;;
9467;SDS011;4772;52.382;9.752;2022-11-20T05:11:43;12.27;;;9.63;;
9467;SDS011;4772;52.382;9.752;2022-11-20T05:14:09;12.73;;;9.83;;
9467;SDS011;4772;52.382;9.752;2022-11-20T05:16:35;16.17;;;9.90;;
9467;SDS011;4772;52.382;9.752;2022-11-20T05:19:01;12.13;;;9.30;;
9467;SDS011;4772;52.382;9.752;2022-11-20T05:21:29;13.33;;;9.77;;
9467;SDS011;4772;52.382;9.752;2022-11-20T05:23:55;14.43;;;9.77;;
9467;SDS011;4772;52.382;9.752;2022-11-20T05:26:22;11.57;;;9.00;;
9467;SDS011;4772;52.382;9.752;2022-11-20T05:28:48;15.53;;;9.77;;
9467;SDS011;4772;52.382;9.752;2022-11-20T05:31:15;12.83;;;9.03;;
9467;SDS011;4772;52.382;9.752;2022-11-20T05:33:42;11.93;;;9.00;;
9467;SDS011;4772;52.382;9.752;2022-11-20T05:36:08;12.70;;;9.47;;
9467;SDS011;4772;52.382;9.752;2022-11-20T05:38:34;12.93;;;9.00;;
9467;SDS011;4772;52.382;9.752;2022-11-20T05:41:07;14.10;;;8.90;;
9467;SDS011;4772;52.382;9.752;2022-11-20T05:43:37;13.00;;;9.60;;
9467;SDS011;4772;52.382;9.752;2022-11-20T05:46:03;13.00;;;8.77;;
9467;SDS011;4772;52.382;9.752;2022-11-20T05:48:30;12.57;;;9.23;;
9467;SDS011;4772;52.382;9.752;2022-11-20T05:50:57;11.93;;;8.27;;
9467;SDS011;4772;52.382;9.752;2022-11-20T05:53:23;12.23;;;8.97;;
9467;SDS011;4772;52.382;9.752;2022-11-20T05:58:24;11.93;;;8.80;;
9467;SDS011;4772;52.382;9.752;2022-11-20T06:00:50;13.00;;;8.30;;
9467;SDS011;4772;52.382;9.752;2022-11-20T06:03:16;11.73;;;8.80;;
9467;SDS011;4772;52.382;9.752;2022-11-20T06:05:42;12.87;;;8.43;;
9467;SDS011;4772;52.382;9.752;2022-11-20T06:08:08;10.07;;;8.20;;
9467;SDS011;4772;52.382;9.752;2022-11-20T06:10:34;11.83;;;8.30;;
9467;SDS011;4772;52.382;9.752;2022-11-20T06:13:00;10.67;;;8.30;;
9467;SDS011;4772;52.382;9.752;2022-11-20T06:15:26;9.50;;;7.60;;
9467;SDS011;4772;52.382;9.752;2022-11-20T06:17:53;10.53;;;8.17;;
9467;SDS011;4772;52.382;9.752;2022-11-20T06:20:19;11.33;;;8.07;;
9467;SDS011;4772;52.382;9.752;2022-11-20T06:22:45;11.87;;;7.80;;
9467;SDS011;4772;52.382;9.752;2022-11-20T06:25:11;12.90;;;8.90;;
9467;SDS011;4772;52.382;9.752;2022-11-20T06:27:37;11.33;;;7.87;;
9467;SDS011;4772;52.382;9.752;2022-11-20T06:30:04;10.63;;;7.90;;
9467;SDS011;4772;52.382;9.752;2022-11-20T06:32:30;11.93;;;8.73;;
9467;SDS011;4772;52.382;9.752;2022-11-20T06:34:56;12.33;;;8.63;;
9467;SDS011;4772;52.382;9.752;2022-11-20T06:37:22;10.13;;;7.80;;
9467;SDS011;4772;52.382;9.752;2022-11-20T06:39:48;11.53;;;8.63;;
9467;SDS011;4772;52.382;9.752;2022-11-20T06:42:14;11.47;;;8.63;;
9467;SDS011;4772;52.382;9.752;2022-11-20T06:44:40;11.27;;;8.27;;
9467;SDS011;4772;52.382;9.752;2022-11-20T06:47:06;10.07;;;7.70;;
9467;SDS011;4772;52.382;9.752;2022-11-20T06:49:32;11.43;;;8.33;;
9467;SDS011;4772;52.382;9.752;2022-11-20T06:51:59;10.70;;;7.93;;
9467;SDS011;4772;52.382;9.752;2022-11-20T06:54:25;10.90;;;8.00;;
9467;SDS011;4772;52.382;9.752;2022-11-20T06:56:51;11.50;;;8.53;;
9467;SDS011;4772;52.382;9.752;2022-11-20T06:59:17;10.13;;;8.23;;
9467;SDS011;4772;52.382;9.752;2022-11-20T07:01:43;10.30;;;8.00;;
9467;SDS011;4772;52.382;9.752;2022-11-20T07:04:09;13.57;;;9.37;;
9467;SDS011;4772;52.382;9.752;2022-11-20T07:06:35;12.10;;;8.73;;
9467;SDS011;4772;52.382;9.752;2022-11-20T07:09:01;10.63;;;8.07;;
9467;SDS011;4772;52.382;9.752;2022-11-20T07:11:27;10.30;;;8.30;;
9467;SDS011;4772;52.382;9.752;2022-11-20T07:13:53;10.50;;;8.07;;
9467;SDS011;4772;52.382;9.752;2022-11-20T07:16:19;10.80;;;8.13;;
9467;SDS011;4772;52.382;9.752;2022-11-20T07:18:45;11.13;;;8.30;;
9467;SDS011;4772;52.382;9.752;2022-11-20T07:21:11;10.40;;;8.00;;
9467;SDS011;4772;52.382;9.752;2022-11-20T07:23:37;10.97;;;8.13;;
9467;SDS011;4772;52.382;9.752;2022-11-20T07:26:06;10.07;;;7.70;;
9467;SDS011;4772;52.382;9.752;2022-11-20T07:28:33;10.77;;;8.67;;
9467;SDS011;4772;52.382;9.752;2022-11-20T07:30:59;13.47;;;8.43;;
9467;SDS011;4772;52.382;9.752;2022-11-20T07:33:25;11.10;;;8.37;;
9467;SDS011;4772;52.382;9.752;2022-11-20T07:35:51;9.87;;;8.00;;
9467;SDS011;4772;52.382;9.752;2022-11-20T07:38:17;10.00;;;8.20;;
9467;SDS011;4772;52.382;9.752;2022-11-20T07:40:43;8.93;;;7.73;;
9467;SDS011;4772;52.382;9.752;2022-11-20T07:43:09;13.17;;;8.87;;
9467;SDS011;4772;52.382;9.752;2022-11-20T07:45:35;10.37;;;8.13;;
9467;SDS011;4772;52.382;9.752;2022-11-20T07:48:01;9.03;;;7.10;;
9467;SDS011;4772;52.382;9.752;2022-11-20T07:50:28;9.00;;;7.00;;
9467;SDS011;4772;52.382;9.752;2022-11-20T07:53:00;8.43;;;7.20;;
9467;SDS011;4772;52.382;9.752;2022-11-20T07:55:26;10.47;;;7.37;;
9467;SDS011;4772;52.382;9.752;2022-11-20T07:57:55;10.73;;;8.40;;
9467;SDS011;4772;52.382;9.752;2022-11-20T08:00:22;11.60;;;7.77;;
9467;SDS011;4772;52.382;9.752;2022-11-20T08:02:48;11.00;;;8.27;;
9467;SDS011;4772;52.382;9.752;2022-11-20T08:05:14;8.77;;;7.13;;
9467;SDS011;4772;52.382;9.752;2022-11-20T08:07:40;11.30;;;7.40;;
9467;SDS011;4772;52.382;9.752;2022-11-20T08:10:07;8.83;;;7.30;;
9467;SDS011;4772;52.382;9.752;2022-11-20T08:12:33;9.77;;;7.97;;
9467;SDS011;4772;52.382;9.752;2022-11-20T08:15:18;10.80;;;7.90;;
9467;SDS011;4772;52.382;9.752;2022-11-20T08:17:44;11.53;;;9.47;;
9467;SDS011;4772;52.382;9.752;2022-11-20T08:20:10;10.37;;;9.10;;
9467;SDS011;4772;52.382;9.752;2022-11-20T08:22:36;12.57;;;9.60;;
9467;SDS011;4772;52.382;9.752;2022-11-20T08:25:02;10.53;;;8.07;;
9467;SDS011;4772;52.382;9.752;2022-11-20T08:27:28;10.57;;;8.30;;
9467;SDS011;4772;52.382;9.752;2022-11-20T08:29:54;9.43;;;7.40;;
9467;SDS011;4772;52.382;9.752;2022-11-20T08:32:20;10.47;;;8.23;;
9467;SDS011;4772;52.382;9.752;2022-11-20T08:34:46;11.40;;;8.23;;
9467;SDS011;4772;52.382;9.752;2022-11-20T08:37:12;11.07;;;8.93;;
9467;SDS011;4772;52.382;9.752;2022-11-20T08:39:38;11.27;;;8.33;;
9467;SDS011;4772;52.382;9.752;2022-11-20T08:42:07;13.07;;;8.60;;
9467;SDS011;4772;52.382;9.752;2022-11-20T08:44:34;11.17;;;8.57;;
9467;SDS011;4772;52.382;9.752;2022-11-20T08:47:00;11.47;;;9.13;;
9467;SDS011;4772;52.382;9.752;2022-11-20T08:49:26;11.97;;;8.60;;
9467;SDS011;4772;52.382;9.752;2022-11-20T08:51:52;9.70;;;8.30;;
9467;SDS011;4772;52.382;9.752;2022-11-20T08:54:20;10.77;;;8.30;;
9467;SDS011;4772;52.382;9.752;2022-11-20T08:56:47;11.33;;;8.30;;
9467;SDS011;4772;52.382;9.752;2022-11-20T08:59:13;10.23;;;8.43;;
9467;SDS011;4772;52.382;9.752;2022-11-20T09:01:39;10.03;;;8.10;;
9467;SDS011;4772;52.382;9.752;2022-11-20T09:04:05;12.33;;;7.97;;
9467;SDS011;4772;52.382;9.752;2022-11-20T09:06:31;10.23;;;7.87;;
9467;SDS011;4772;52.382;9.752;2022-11-20T09:08:57;10.70;;;8.27;;
9467;SDS011;4772;52.382;9.752;2022-11-20T09:11:23;12.17;;;8.30;;
9467;SDS011;4772;52.382;9.752;2022-11-20T09:13:49;10.27;;;7.93;;
9467;SDS011;4772;52.382;9.752;2022-11-20T09:16:15;10.10;;;7.77;;
9467;SDS011;4772;52.382;9.752;2022-11-20T09:18:41;9.17;;;7.57;;
9467;SDS011;4772;52.382;9.752;2022-11-20T09:21:11;11.00;;;8.17;;
9467;SDS011;4772;52.382;9.752;2022-11-20T09:23:37;12.60;;;8.33;;
9467;SDS011;4772;52.382;9.752;2022-11-20T09:26:08;11.97;;;8.47;;
9467;SDS011;4772;52.382;9.752;2022-11-20T09:28:35;12.53;;;9.00;;
9467;SDS011;4772;52.382;9.752;2022-11-20T09:31:03;14.83;;;9.77;;
9467;SDS011;4772;52.382;9.752;2022-11-20T09:33:30;11.57;;;8.40;;
9467;SDS011;4772;52.382;9.752;2022-11-20T09:35:56;10.27;;;7.90;;
9467;SDS011;4772;52.382;9.752;2022-11-20T09:38:22;11.50;;;7.77;;
9467;SDS011;4772;52.382;9.752;2022-11-20T09:40:55;9.50;;;7.67;;
9467;SDS011;4772;52.382;9.752;2022-11-20T09:44:17;9.37;;;7.70;;
9467;SDS011;4772;52.382;9.752;2022-11-20T09:46:17;9.87;;;7.50;;
9467;SDS011;4772;52.382;9.752;2022-11-20T09:48:54;9.73;;;7.97;;
9467;SDS011;4772;52.382;9.752;2022-11-20T09:56:23;9.13;;;7.03;;
9467;SDS011;4772;52.382;9.752;2022-11-20T09:58:51;9.57;;;6.53;;
9467;SDS011;4772;52.382;9.752;2022-11-20T10:01:18;9.93;;;7.53;;
9467;SDS011;4772;52.382;9.752;2022-11-20T10:03:54;8.73;;;7.13;;
9467;SDS011;4772;52.382;9.752;2022-11-20T10:06:24;8.70;;;7.80;;
9467;SDS011;4772;52.382;9.752;2022-11-20T10:19:44;8.83;;;7.20;;
9467;SDS011;4772;52.382;9.752;2022-11-20T10:25:06;9.30;;;6.93;;
9467;SDS011;4772;52.382;9.752;2022-11-20T10:27:43;9.03;;;7.40;;
9467;SDS011;4772;52.382;9.752;2022-11-20T10:30:14;7.47;;;6.50;;
9467;SDS011;4772;52.382;9.752;2022-11-20T10:32:42;8.93;;;7.17;;
9467;SDS011;4772;52.382;9.752;2022-11-20T10:37:35;7.87;;;5.57;;
9467;SDS011;4772;52.382;9.752;2022-11-20T10:42:59;8.03;;;5.40;;
9467;SDS011;4772;52.382;9.752;2022-11-20T10:47:56;6.30;;;5.10;;
9467;SDS011;4772;52.382;9.752;2022-11-20T10:50:30;8.53;;;6.27;;
9467;SDS011;4772;52.382;9.752;2022-11-20T10:58:15;8.47;;;6.07;;
9467;SDS011;4772;52.382;9.752;2022-11-20T11:00:45;6.97;;;5.83;;
9467;SDS011;4772;52.382;9.752;2022-11-20T11:03:22;6.23;;;5.33;;
9467;SDS011;4772;52.382;9.752;2022-11-20T11:08:36;6.73;;;5.40;;
9467;SDS011;4772;52.382;9.752;2022-11-20T11:11:15;8.60;;;5.77;;
9467;SDS011;4772;52.382;9.752;2022-11-20T11:13:44;6.63;;;5.77;;
9467;SDS011;4772;52.382;9.752;2022-11-20T11:16:24;6.83;;;5.17;;
9467;SDS011;4772;52.382;9.752;2022-11-20T11:18:50;7.27;;;5.70;;
9467;SDS011;4772;52.382;9.752;2022-11-20T11:21:23;6.80;;;5.63;;
9467;SDS011;4772;52.382;9.752;2022-11-20T11:23:57;6.67;;;5.53;;
9467;SDS011;4772;52.382;9.752;2022-11-20T11:26:24;7.33;;;5.80;;
9467;SDS011;4772;52.382;9.752;2022-11-20T11:28:57;6.03;;;5.40;;
9467;SDS011;4772;52.382;9.752;2022-11-20T11:31:24;7.80;;;5.60;;
9467;SDS011;4772;52.382;9.752;2022-11-20T11:33:50;7.00;;;5.93;;
9467;SDS011;4772;52.382;9.752;2022-11-20T11:36:21;8.07;;;5.90;;
9467;SDS011;4772;52.382;9.752;2022-11-20T11:38:51;7.20;;;5.60;;
9467;SDS011;4772;52.382;9.752;2022-11-20T11:41:20;6.90;;;5.70;;
9467;SDS011;4772;52.382;9.752;2022-11-20T11:44:15;6.83;;;5.93;;
9467;SDS011;4772;52.382;9.752;2022-11-20T11:46:54;11.80;;;6.90;;
9467;SDS011;4772;52.382;9.752;2022-11-20T11:49:21;9.27;;;7.63;;
9467;SDS011;4772;52.382;9.752;2022-11-20T11:51:56;11.30;;;7.40;;
9467;SDS011;4772;52.382;9.752;2022-11-20T11:57:12;8.83;;;7.13;;
9467;SDS011;4772;52.382;9.752;2022-11-20T11:59:44;9.43;;;7.00;;
9467;SDS011;4772;52.382;9.752;2022-11-20T12:02:25;11.10;;;7.57;;
9467;SDS011;4772;52.382;9.752;2022-11-20T12:04:57;8.83;;;7.33;;
9467;SDS011;4772;52.382;9.752;2022-11-20T12:07:41;9.43;;;7.17;;
9467;SDS011;4772;52.382;9.752;2022-11-20T12:10:14;10.43;;;7.00;;
9467;SDS011;4772;52.382;9.752;2022-11-20T12:12:42;11.43;;;7.53;;
9467;SDS011;4772;52.382;9.752;2022-11-20T12:15:10;9.20;;;7.17;;
9467;SDS011;4772;52.382;9.752;2022-11-20T12:17:37;8.40;;;6.63;;
9467;SDS011;4772;52.382;9.752;2022-11-20T12:20:05;10.57;;;7.63;;
9467;SDS011;4772;52.382;9.752;2022-11-20T12:22:44;10.17;;;7.27;;
9467;SDS011;4772;52.382;9.752;2022-11-20T12:30:17;10.83;;;8.30;;
9467;SDS011;4772;52.382;9.752;2022-11-20T12:40:57;11.53;;;8.37;;
9467;SDS011;4772;52.382;9.752;2022-11-20T12:43:30;11.50;;;8.70;;
9467;SDS011;4772;52.382;9.752;2022-11-20T12:46:30;15.40;;;8.10;;
9467;SDS011;4772;52.382;9.752;2022-11-20T13:07:15;10.67;;;8.03;;
9467;SDS011;4772;52.382;9.752;2022-11-20T13:09:46;10.33;;;8.23;;
9467;SDS011;4772;52.382;9.752;2022-11-20T13:12:17;13.30;;;8.23;;
9467;SDS011;4772;52.382;9.752;2022-11-20T13:14:47;11.43;;;9.03;;
9467;SDS011;4772;52.382;9.752;2022-11-20T13:17:19;10.30;;;8.13;;
9467;SDS011;4772;52.382;9.752;2022-11-20T13:19:49;11.00;;;8.20;;
9467;SDS011;4772;52.382;9.752;2022-11-20T13:22:24;9.07;;;7.83;;
9467;SDS011;4772;52.382;9.752;2022-11-20T13:24:51;10.77;;;8.50;;
9467;SDS011;4772;52.382;9.752;2022-11-20T13:27:18;11.40;;;8.23;;
9467;SDS011;4772;52.382;9.752;2022-11-20T13:29:46;14.37;;;8.80;;
9467;SDS011;4772;52.382;9.752;2022-11-20T13:32:16;10.83;;;8.10;;
9467;SDS011;4772;52.382;9.752;2022-11-20T13:34:59;12.37;;;9.00;;
9467;SDS011;4772;52.382;9.752;2022-11-20T13:37:27;10.33;;;7.93;;
9467;SDS011;4772;52.382;9.752;2022-11-20T13:40:04;9.70;;;7.90;;
9467;SDS011;4772;52.382;9.752;2022-11-20T13:42:30;12.47;;;8.57;;
9467;SDS011;4772;52.382;9.752;2022-11-20T13:45:01;12.57;;;8.23;;
9467;SDS011;4772;52.382;9.752;2022-11-20T13:47:28;16.40;;;9.93;;
9467;SDS011;4772;52.382;9.752;2022-11-20T13:49:57;12.93;;;8.03;;
9467;SDS011;4772;52.382;9.752;2022-11-20T13:52:42;12.57;;;8.57;;
9467;SDS011;4772;52.382;9.752;2022-11-20T14:00:25;11.93;;;8.40;;
9467;SDS011;4772;52.382;9.752;2022-11-20T14:05:34;13.03;;;9.27;;
9467;SDS011;4772;52.382;9.752;2022-11-20T14:08:02;12.47;;;9.30;;
9467;SDS011;4772;52.382;9.752;2022-11-20T14:10:29;12.20;;;9.50;;
9467;SDS011;4772;52.382;9.752;2022-11-20T14:12:55;12.50;;;8.90;;
9467;SDS011;4772;52.382;9.752;2022-11-20T14:15:39;11.30;;;8.73;;
9467;SDS011;4772;52.382;9.752;2022-11-20T14:18:12;13.13;;;10.30;;
9467;SDS011;4772;52.382;9.752;2022-11-20T14:20:38;15.40;;;10.30;;
9467;SDS011;4772;52.382;9.752;2022-11-20T14:23:04;15.63;;;10.23;;
9467;SDS011;4772;52.382;9.752;2022-11-20T14:25:30;15.30;;;10.30;;
9467;SDS011;4772;52.382;9.752;2022-11-20T14:28:00;13.73;;;9.73;;
9467;SDS011;4772;52.382;9.752;2022-11-20T14:30:46;15.63;;;10.67;;
9467;SDS011;4772;52.382;9.752;2022-11-20T14:33:12;13.23;;;9.50;;
9467;SDS011;4772;52.382;9.752;2022-11-20T14:35:46;11.20;;;9.13;;
9467;SDS011;4772;52.382;9.752;2022-11-20T14:38:13;12.73;;;9.57;;
9467;SDS011;4772;52.382;9.752;2022-11-20T14:40:40;14.37;;;10.57;;
9467;SDS011;4772;52.382;9.752;2022-11-20T14:45:42;16.47;;;12.03;;
9467;SDS011;4772;52.382;9.752;2022-11-20T14:48:08;14.90;;;11.13;;
9467;SDS011;4772;52.382;9.752;2022-11-20T14:50:35;13.40;;;9.70;;
9467;SDS011;4772;52.382;9.752;2022-11-20T14:53:02;13.03;;;9.27;;
9467;SDS011;4772;52.382;9.752;2022-11-20T14:55:32;13.90;;;9.80;;
9467;SDS011;4772;52.382;9.752;2022-11-20T14:58:03;13.27;;;9.83;;
9467;SDS011;4772;52.382;9.752;2022-11-20T15:00:30;19.90;;;12.90;;
9467;SDS011;4772;52.382;9.752;2022-11-20T15:02:56;16.20;;;11.13;;
9467;SDS011;4772;52.382;9.752;2022-11-20T15:05:25;12.13;;;9.73;;
9467;SDS011;4772;52.382;9.752;2022-11-20T15:07:52;14.77;;;10.80;;
9467;SDS011;4772;52.382;9.752;2022-11-20T15:10:29;15.03;;;10.57;;
9467;SDS011;4772;52.382;9.752;2022-11-20T15:13:17;13.43;;;10.17;;
9467;SDS011;4772;52.382;9.752;2022-11-20T15:15:49;14.90;;;10.27;;
9467;SDS011;4772;52.382;9.752;2022-11-20T15:18:17;16.23;;;11.37;;
9467;SDS011;4772;52.382;9.752;2022-11-20T15:20:44;14.73;;;10.20;;
9467;SDS011;4772;52.382;9.752;2022-11-20T15:23:13;13.50;;;10.80;;
9467;SDS011;4772;52.382;9.752;2022-11-20T15:25:42;14.97;;;11.23;;
9467;SDS011;4772;52.382;9.752;2022-11-20T15:28:13;16.25;;;11.02;;
9467;SDS011;4772;52.382;9.752;2022-11-20T15:30:41;15.03;;;10.80;;
9467;SDS011;4772;52.382;9.752;2022-11-20T15:33:08;20.13;;;14.10;;
9467;SDS011;4772;52.382;9.752;2022-11-20T15:35:34;18.67;;;13.00;;
9467;SDS011;4772;52.382;9.752;2022-11-20T15:38:00;19.30;;;13.73;;
9467;SDS011;4772;52.382;9.752;2022-11-20T15:40:26;17.10;;;11.90;;
9467;SDS011;4772;52.382;9.752;2022-11-20T15:42:54;19.77;;;13.13;;
9467;SDS011;4772;52.382;9.752;2022-11-20T15:45:36;21.07;;;14.60;;
9467;SDS011;4772;52.382;9.752;2022-11-20T15:48:03;15.87;;;10.97;;
9467;SDS011;4772;52.382;9.752;2022-11-20T15:50:33;14.27;;;10.30;;
9467;SDS011;4772;52.382;9.752;2022-11-20T15:53:01;16.00;;;10.00;;
9467;SDS011;4772;52.382;9.752;2022-11-20T15:55:27;14.70;;;10.03;;
9467;SDS011;4772;52.382;9.752;2022-11-20T15:57:53;14.90;;;10.67;;
9467;SDS011;4772;52.382;9.752;2022-11-20T16:00:19;18.20;;;11.27;;
9467;SDS011;4772;52.382;9.752;2022-11-20T16:02:45;17.50;;;11.63;;
9467;SDS011;4772;52.382;9.752;2022-11-20T16:05:11;17.43;;;12.23;;
9467;SDS011;4772;52.382;9.752;2022-11-20T16:07:38;18.10;;;11.93;;
9467;SDS011;4772;52.382;9.752;2022-11-20T16:10:04;21.30;;;13.50;;
9467;SDS011;4772;52.382;9.752;2022-11-20T16:12:30;19.43;;;13.87;;
9467;SDS011;4772;52.382;9.752;2022-11-20T16:15:14;19.77;;;13.80;;
9467;SDS011;4772;52.382;9.752;2022-11-20T16:17:59;18.07;;;13.30;;
9467;SDS011;4772;52.382;9.752;2022-11-20T16:20:25;19.17;;;13.20;;
9467;SDS011;4772;52.382;9.752;2022-11-20T16:22:51;17.87;;;12.77;;
9467;SDS011;4772;52.382;9.752;2022-11-20T16:25:17;19.77;;;12.70;;
9467;SDS011;4772;52.382;9.752;2022-11-20T16:27:43;19.87;;;11.97;;
9467;SDS011;4772;52.382;9.752;2022-11-20T16:30:09;16.13;;;11.57;;
9467;SDS011;4772;52.382;9.752;2022-11-20T16:32:35;18.30;;;12.10;;